Latest Coastal Weather Observations for Dennes Point

IDT60701

Issued at 8:05 pm EST Wednesday 23 April 2014 (issued every 10 minutes, with the page automatically refreshed every 10 minutes)

About coastal observations | Map of coastal stations | Coastal observations for TAS | Marine services | Other Formats
Station Details ID: 094255 Name: DENNES POINT Lat: -43.06 Lon: 147.36 Height: 5.67 m
Data from the previous 72 hours. | See also: Recent months at Dennes Point
Date/Time
EST
Temp

°C
Wind Pressure Rain
since 9am
mm
Weather Cloud Vis
km
Sea
Height
m
Swell
Dir
 
Speed
knots
Gust
knots
hPa Trend Height
m
Period
s
Dir
23/08:00pm 15.3 N 12 18 1006.5 - 0.0 - - - - - - -
23/07:30pm 15.3 N 9 11 1006.9 - 0.0 - - - - - - -
23/07:00pm 15.4 N 10 12 1006.9 - 0.0 - - - - - - -
23/06:30pm 15.2 NNW 6 8 1007.2 - 0.0 - - - - - - -
23/06:00pm 15.1 NNW 6 7 1007.4 - 0.0 - - - - - - -
23/05:30pm 15.5 NNW 6 8 1007.5 - 0.0 - - - - - - -
23/05:00pm 15.8 N 7 10 1007.5 - 0.0 - - - - - - -
23/04:30pm 16.0 N 6 8 1008.1 - 0.0 - - - - - - -
23/04:00pm 15.9 NNW 2 5 1008.2 - 0.0 - - - - - - -
23/03:30pm 16.0 N 3 4 1008.5 - 0.0 - - - - - - -
23/03:00pm 15.8 N 4 6 1008.7 - 0.0 - - - - - - -
23/02:30pm 16.3 NNW 6 9 1009.1 - 0.0 - - - - - - -
23/02:00pm 16.2 WNW 9 13 1009.7 - 0.0 - - - - - - -
23/01:30pm 15.9 N 6 9 1010.0 - 0.0 - - - - - - -
23/01:00pm 15.8 N 11 14 1010.3 - 0.0 - - - - - - -
23/12:30pm 15.6 N 11 15 1010.6 - 0.0 - - - - - - -
23/12:00pm 15.0 N 7 9 1011.2 - 0.0 - - - - - - -
23/11:30am 14.4 N 12 14 1011.7 - 0.0 - - - - - - -
23/11:00am 14.0 NNE 10 13 1012.1 - 0.0 - - - - - - -
23/10:30am 13.8 NNE 9 12 1012.4 - 0.0 - - - - - - -
23/10:00am 13.1 N 12 14 1013.0 - 0.0 - - - - - - -
23/09:30am 12.4 N 12 15 1013.5 - 0.0 - - - - - - -
23/09:00am 12.6 NNE 7 12 1013.6 - 0.0 - - - - - - -
23/08:30am 11.6 SSW 3 6 1013.8 - 0.0 - - - - - - -
23/08:00am 11.1 SW 3 5 1013.8 - 0.0 - - - - - - -
23/07:30am 11.8 N 7 9 1013.5 - 0.0 - - - - - - -
23/07:00am 9.9 SSW 4 5 1013.6 - 0.0 - - - - - - -
23/06:30am 11.7 NNW 5 6 1013.4 - 0.0 - - - - - - -
23/06:00am 10.3 W 2 4 1013.6 - 0.0 - - - - - - -
23/05:30am 10.0 SSW 4 5 1013.7 - 0.0 - - - - - - -
23/05:00am 9.5 S 5 7 1013.6 - 0.0 - - - - - - -
23/04:30am 9.0 S 5 6 1013.5 - 0.0 - - - - - - -
23/04:00am 9.8 SSW 4 5 1013.4 - 0.0 - - - - - - -
23/03:30am 10.3 SSW 4 5 1013.2 - 0.0 - - - - - - -
23/03:00am 10.5 SSW 4 5 1013.3 - 0.0 - - - - - - -
23/02:30am 11.4 CALM 0 2 1013.3 - 0.0 - - - - - - -
23/02:00am 11.0 W 3 5 1013.4 - 0.0 - - - - - - -
23/01:30am 11.2 W 2 4 1013.2 - 0.0 - - - - - - -
23/01:00am 11.8 W 4 6 1013.2 - 0.0 - - - - - - -
23/12:30am 12.7 NW 4 6 1013.2 - 0.0 - - - - - - -
23/12:00am 11.8 SSE 1 4 1013.1 - 0.0 - - - - - - -
 
Date/Time
EST
Temp

°C
Wind Pressure Rain
since 9am
mm
Weather Cloud Vis
km
Sea
Height
m
Swell
Dir
 
Speed
knots
Gust
knots
hPa Trend Height
m
Period
s
Dir
22/11:30pm 12.8 NW 3 5 1013.2 - 0.0 - - - - - - -
22/11:00pm 13.3 NW 4 6 1013.0 - 0.0 - - - - - - -
22/10:30pm 12.9 W 8 11 1013.0 - 0.0 - - - - - - -
22/10:00pm 13.4 NW 7 10 1012.8 - 0.0 - - - - - - -
22/09:30pm 13.5 NW 9 13 1012.4 - 0.0 - - - - - - -
22/09:00pm 13.5 W 9 12 1012.2 - 0.0 - - - - - - -
22/08:30pm 13.6 W 14 19 1011.7 - 0.0 - - - - - - -
22/08:00pm 13.6 WSW 13 17 1011.5 - 0.0 - - - - - - -
22/07:30pm 13.9 WSW 12 16 1011.3 - 0.0 - - - - - - -
22/07:00pm 14.2 WSW 13 17 1010.8 - 0.0 - - - - - - -
22/06:30pm 14.8 WNW 5 7 1010.2 - 0.0 - - - - - - -
22/06:00pm 14.8 WNW 4 6 1009.6 - 0.0 - - - - - - -
22/05:30pm 15.0 WNW 7 10 1009.1 - 0.0 - - - - - - -
22/05:00pm 14.9 W 8 13 1008.7 - 0.0 - - - - - - -
22/04:30pm 15.5 W 12 17 1008.5 - 0.0 - - - - - - -
22/04:00pm 16.0 W 16 22 1008.1 - 0.0 - - - - - - -
22/03:30pm 16.2 W 19 31 1008.2 - 0.0 - - - - - - -
22/03:24pm 16.3 W 18 29 1008.2 - 0.0 - - - - - - -
22/03:00pm 16.6 W 20 29 1007.9 - 0.0 - - - - - - -
22/02:53pm 16.6 W 19 29 1007.9 - 0.0 - - - - - - -
22/02:30pm 16.7 W 21 29 1007.8 - 0.0 - - - - - - -
22/02:00pm 17.1 W 16 24 1007.5 - 0.0 - - - - - - -
22/01:30pm 17.4 W 15 21 1007.4 - 0.0 - - - - - - -
22/01:11pm 17.4 WSW 16 27 1007.0 - 0.0 - - - - - - -
22/01:00pm 17.1 WSW 16 22 1006.8 - 0.0 - - - - - - -
22/12:30pm 17.1 SW 16 20 1006.5 - 0.0 - - - - - - -
22/12:00pm 17.6 WSW 12 16 1006.1 - 0.0 - - - - - - -
22/11:30am 17.6 WSW 13 18 1006.0 - 0.0 - - - - - - -
22/11:00am 17.8 W 16 21 1005.6 - 0.0 - - - - - - -
22/10:30am 18.4 W 12 17 1005.3 - 0.0 - - - - - - -
22/10:00am 17.7 WNW 11 18 1005.2 - 0.0 - - - - - - -
22/09:30am 17.3 W 14 22 1005.1 - 0.0 - - - - - - -
22/09:00am 17.5 WNW 10 16 1005.0 - 2.6 - - - - - - -
22/08:30am 17.2 WNW 12 17 1004.7 - 2.6 - - - - - - -
22/08:00am 17.1 W 7 11 1004.6 - 2.6 - - - - - - -
22/07:30am 17.1 WNW 3 5 1004.2 - 2.6 - - - - - - -
22/07:00am 17.6 N 3 5 1003.8 - 2.6 - - - - - - -
22/06:30am 16.8 NNW 3 5 1003.5 - 2.6 - - - - - - -
22/06:00am 17.2 N 6 9 1002.9 - 2.6 - - - - - - -
22/05:30am 17.3 N 6 11 1003.0 - 2.6 - - - - - - -
22/05:00am 15.7 N 6 8 1002.5 - 2.6 - - - - - - -
22/04:30am 15.4 N 7 11 1002.3 - 2.6 - - - - - - -
22/04:00am 15.1 NNW 6 10 1002.0 - 2.6 - - - - - - -
22/03:30am 14.3 NNW 6 12 1001.9 - 2.6 - - - - - - -
22/03:00am 13.0 N 8 13 1002.1 - 2.6 - - - - - - -
22/02:30am 13.0 N 10 15 1002.5 - 2.6 - - - - - - -
22/02:00am 14.1 N 14 19 1002.6 - 2.6 - - - - - - -
22/01:30am 12.9 NNE 13 17 1003.1 - 2.6 - - - - - - -
22/01:00am 12.4 NNE 14 16 1003.9 - 2.6 - - - - - - -
22/12:30am 12.0 NE 12 13 1004.7 - 2.6 - - - - - - -
22/12:00am 12.0 NNE 10 14 1005.8 - 2.6 Recent precip. - - - - - -
 
Date/Time
EST
Temp

°C
Wind Pressure Rain
since 9am
mm
Weather Cloud Vis
km
Sea
Height
m
Swell
Dir
 
Speed
knots
Gust
knots
hPa Trend Height
m
Period
s
Dir
21/11:30pm 11.6 NNE 11 14 1006.7 - 2.6 - - - - - - -
21/11:00pm 11.6 NE 10 12 1007.5 - 2.4 - - - - - - -
21/10:30pm 11.9 N 11 14 1008.4 - 1.8 - - - - - - -
21/10:00pm 11.5 NNE 12 14 1009.3 - 1.8 - - - - - - -
21/09:30pm 11.8 NNE 11 15 1009.7 - 1.2 - - - - - - -
21/09:00pm 11.7 NNE 11 13 1010.1 - 0.8 Recent precip. - - - - - -
21/08:30pm 12.5 NNE 11 16 1010.4 - 0.0 - - - - - - -
21/08:00pm 12.8 N 12 14 1010.7 - 0.0 - - - - - - -
21/07:30pm 12.8 NNE 11 13 1010.8 - 0.0 - - - - - - -
21/07:00pm 12.9 NNE 11 12 1011.4 - 0.0 - - - - - - -
21/06:30pm 12.9 NNE 11 14 1011.6 - 0.0 - - - - - - -
21/06:00pm 12.9 NNE 12 15 1011.6 - 0.0 - - - - - - -
21/05:30pm 13.3 NNE 13 16 1012.0 - 0.0 - - - - - - -
21/05:00pm 13.6 NNE 13 15 1012.4 - 0.0 - - - - - - -
21/04:30pm 13.6 NE 10 12 1012.8 - 0.0 - - - - - - -
21/04:00pm 13.9 NNE 11 13 1013.1 - 0.0 - - - - - - -
21/03:30pm 13.3 ENE 5 6 1013.5 - 0.0 - - - - - - -
21/03:00pm 13.5 NE 6 9 1013.7 - 0.0 - - - - - - -
21/02:30pm 13.4 NE 7 9 1014.2 - 0.0 - - - - - - -
21/02:00pm 13.3 NE 9 11 1014.7 - 0.0 - - - - - - -
21/01:30pm 13.3 NE 9 11 1015.0 - 0.0 - - - - - - -
21/01:00pm 13.2 NNE 5 7 1015.6 - 0.0 - - - - - - -
21/12:30pm 12.6 NNE 6 9 1016.0 - 0.0 - - - - - - -
21/12:00pm 13.1 NNE 6 8 1016.7 - 0.0 - - - - - - -
21/11:30am 12.8 NNE 8 10 1017.0 - 0.0 - - - - - - -
21/11:00am 12.5 NNE 8 10 1017.7 - 0.0 - - - - - - -
21/10:30am 12.2 N 5 7 1018.1 - 0.0 - - - - - - -
21/10:00am 11.3 NNE 4 6 1018.1 - 0.0 - - - - - - -
21/09:30am 10.7 NNW 3 5 1018.3 - 0.0 - - - - - - -
21/09:00am 10.4 N 3 4 1018.4 - 0.0 - - - - - - -
21/08:30am 10.0 N 3 6 1018.7 - 0.0 - - - - - - -
21/08:00am 9.1 WSW 1 2 1018.6 - 0.0 - - - - - - -
21/07:30am 7.7 S 1 3 1018.3 - 0.0 - - - - - - -
21/07:00am 7.0 SSW 4 4 1018.1 - 0.0 - - - - - - -
21/06:30am 7.5 W 2 3 1017.9 - 0.0 - - - - - - -
21/06:00am 7.1 WSW 3 4 1017.6 - 0.0 - - - - - - -
21/05:30am 7.4 WSW 3 3 1017.5 - 0.0 - - - - - - -
21/05:00am 6.7 SW 3 4 1017.3 - 0.0 - - - - - - -
21/04:30am 6.7 SSE 3 4 1017.0 - 0.0 - - - - - - -
21/04:00am 7.4 WSW 5 8 1016.9 - 0.0 - - - - - - -
21/03:30am 7.0 WSW 3 4 1016.6 - 0.0 - - - - - - -
21/03:00am 7.3 W 5 7 1016.6 - 0.0 - - - - - - -
21/02:30am 7.3 W 5 7 1016.7 - 0.0 - - - - - - -
21/02:00am 7.9 W 3 5 1016.8 - 0.0 - - - - - - -
21/01:30am 8.5 W 7 9 1016.5 - 0.0 - - - - - - -
21/01:00am 8.5 W 8 10 1016.3 - 0.0 - - - - - - -
21/12:30am 7.8 W 5 6 1016.0 - 0.0 - - - - - - -
21/12:00am 8.9 W 5 7 1015.8 - 0.0 - - - - - - -
 
Date/Time
EST
Temp

°C
Wind Pressure Rain
since 9am
mm
Weather Cloud Vis
km
Sea
Height
m
Swell
Dir
 
Speed
knots
Gust
knots
hPa Trend Height
m
Period
s
Dir
20/11:30pm 9.7 WNW 7 9 1015.5 - 0.0 - - - - - - -
20/11:00pm 9.9 W 11 15 1015.4 - 0.0 - - - - - - -
20/10:30pm 10.5 W 12 16 1015.2 - 0.0 - - - - - - -
20/10:00pm 10.0 W 11 13 1015.1 - 0.0 - - - - - - -
20/09:30pm 10.1 W 11 13 1014.6 - 0.0 - - - - - - -
20/09:00pm 10.3 WNW 7 11 1014.4 - 0.0 - - - - - - -
20/08:30pm 10.6 W 10 12 1013.9 - 0.0 - - - - - - -

Other Formats:

Comma delimited format used in spreadsheet applications
http://www.bom.gov.au/fwo/IDT60701/IDT60701.94988.axf

JavaScript Object Notation format (JSON) in row-major order
http://www.bom.gov.au/fwo/IDT60701/IDT60701.94988.json